createdAt,value
2022-09-05T00:05:09.796Z,101864.06
2022-09-05T00:10:51.944Z,101871.75
2022-09-05T00:16:36.415Z,101850.47
2022-09-05T00:24:35.901Z,101850.63
2022-09-05T00:28:00.171Z,101855.38
2022-09-05T00:33:31.899Z,101864.41
2022-09-05T00:38:59.796Z,101857.75
2022-09-05T00:44:25.935Z,101856.09
2022-09-05T00:49:53.616Z,101852.97
2022-09-05T00:55:23.084Z,101852.38
2022-09-05T01:00:52.824Z,101861.44
2022-09-05T01:06:30.908Z,101860.66
2022-09-05T01:12:11.516Z,101861.16
2022-09-05T01:17:44.708Z,101856.91
2022-09-05T01:23:29.747Z,101858.16
2022-09-05T01:29:16.373Z,101848.94
2022-09-05T01:34:55.731Z,101855.25
2022-09-05T01:40:25.217Z,101859.78
2022-09-05T01:45:52.406Z,101854.06
2022-09-05T01:51:29.137Z,101864.53
2022-09-05T01:57:04.713Z,101864.06
2022-09-05T02:02:50.706Z,101861.00
2022-09-05T02:08:35.705Z,101848.59
2022-09-05T02:14:01.543Z,101859.41
2022-09-05T02:19:29.817Z,101855.16
2022-09-05T02:24:58.486Z,101844.38
2022-09-05T02:30:58.978Z,101839.72
2022-09-05T02:36:36.014Z,101850.97
2022-09-05T02:45:14.817Z,101850.31
2022-09-05T02:47:50.445Z,101856.75
2022-09-05T02:57:25.548Z,101863.03
2022-09-05T02:59:10.516Z,101858.00
2022-09-05T03:04:39.149Z,101859.94
2022-09-05T03:10:17.876Z,101846.44
2022-09-05T03:16:16.115Z,101851.13
2022-09-05T03:22:24.174Z,101857.31
2022-09-05T03:28:24.067Z,101786.97
2022-09-05T03:34:14.335Z,101853.00
2022-09-05T03:39:54.256Z,101872.59
2022-09-05T03:45:37.359Z,101873.91
2022-09-05T03:57:13.844Z,101863.47
2022-09-05T03:57:33.833Z,101867.03
2022-09-05T04:07:48.166Z,101857.78
2022-09-05T04:08:58.285Z,101863.22
2022-09-05T04:14:27.489Z,101868.44
2022-09-05T04:19:55.274Z,101844.97
2022-09-05T04:25:25.305Z,101866.50
2022-09-05T04:30:50.388Z,101863.22
2022-09-05T04:36:20.750Z,101801.25
2022-09-05T04:41:47.183Z,101859.84
2022-09-05T04:47:13.108Z,101846.72
2022-09-05T04:52:55.815Z,101848.38
2022-09-05T04:58:36.408Z,101866.38
2022-09-05T05:06:16.279Z,101839.06
2022-09-05T05:10:25.586Z,101871.19
2022-09-05T05:18:14.992Z,101871.19
2022-09-05T05:21:32.808Z,101874.09
2022-09-05T05:27:02.803Z,101872.31
2022-09-05T05:32:46.156Z,101869.28
2022-09-05T05:38:24.679Z,101877.16
2022-09-05T05:43:50.252Z,101876.16
2022-09-05T05:49:37.734Z,101878.78
2022-09-05T05:55:14.070Z,101881.53
2022-09-05T06:01:27.388Z,101876.63
2022-09-05T06:07:04.674Z,101883.72
2022-09-05T06:15:01.922Z,101859.06
2022-09-05T06:19:15.181Z,101891.94
2022-09-05T06:25:20.431Z,101900.06
2022-09-05T06:30:48.635Z,101899.16
2022-09-05T06:36:44.359Z,101897.16
2022-09-05T06:42:33.370Z,101880.53
2022-09-05T06:48:06.206Z,101889.66
2022-09-05T06:53:43.581Z,101819.63
2022-09-05T06:59:43.866Z,101884.66
2022-09-05T07:05:37.031Z,101886.91
2022-09-05T07:11:11.450Z,101895.63
2022-09-05T07:16:43.837Z,101894.47
2022-09-05T07:22:47.925Z,101895.53
2022-09-05T07:28:28.582Z,101895.81
2022-09-05T07:34:21.505Z,101898.53
2022-09-05T07:39:49.787Z,101904.88
2022-09-05T07:45:18.435Z,101903.56
2022-09-05T07:56:36.302Z,101886.03
2022-09-05T07:57:08.834Z,101912.44
2022-09-05T08:02:29.364Z,101915.97
2022-09-05T08:07:55.835Z,101904.03
2022-09-05T08:13:33.919Z,101911.72
2022-09-05T08:19:06.316Z,101902.31
2022-09-05T08:24:33.648Z,101906.47
2022-09-05T08:30:25.636Z,101906.03
2022-09-05T08:35:53.289Z,101911.28
2022-09-05T08:41:44.704Z,101908.72
2022-09-05T08:47:19.499Z,101891.03
2022-09-05T08:52:53.727Z,101903.81
2022-09-05T08:58:34.280Z,101898.63
2022-09-05T09:04:14.115Z,101891.13
2022-09-05T09:09:45.365Z,101882.91
2022-09-05T09:15:15.002Z,101897.41
2022-09-05T09:20:49.194Z,101898.69
2022-09-05T09:26:17.072Z,101892.00
2022-09-05T09:31:46.908Z,101886.69
2022-09-05T09:37:50.701Z,101874.97
2022-09-05T09:43:23.223Z,101872.38
2022-09-05T09:49:02.939Z,101859.44
2022-09-05T09:54:45.090Z,101853.13
2022-09-05T10:00:17.574Z,101858.81
2022-09-05T10:10:36.002Z,101839.28
2022-09-05T10:12:02.208Z,101843.31
2022-09-05T10:17:54.659Z,101843.88
2022-09-05T10:23:50.935Z,101837.03
2022-09-05T10:29:37.849Z,101820.50
2022-09-05T10:35:22.136Z,101847.94
2022-09-05T10:41:11.239Z,101832.88
2022-09-05T10:46:57.053Z,101835.84
2022-09-05T10:52:26.214Z,101805.56
2022-09-05T10:58:01.903Z,101825.50
2022-09-05T11:03:30.658Z,101824.50
2022-09-05T11:09:14.378Z,101823.44
2022-09-05T11:14:49.374Z,101814.38
2022-09-05T11:20:35.547Z,101815.44
2022-09-05T11:26:06.085Z,101808.31
2022-09-05T11:32:40.062Z,101807.84
2022-09-05T11:39:52.066Z,101804.91
2022-09-05T11:44:25.222Z,101802.47
2022-09-05T11:50:11.539Z,101814.78
2022-09-05T11:55:46.347Z,101813.38
2022-09-05T12:01:36.816Z,101810.41
2022-09-05T12:07:30.147Z,101809.50
2022-09-05T12:13:08.350Z,101808.16
2022-09-05T12:18:42.010Z,101803.25
2022-09-05T12:25:18.015Z,101799.38
2022-09-05T12:29:59.987Z,101785.66
2022-09-05T12:36:08.278Z,101800.00
2022-09-05T12:41:43.500Z,101801.78
2022-09-05T12:47:16.733Z,101806.50
2022-09-05T12:52:46.854Z,101809.34
2022-09-05T13:01:27.114Z,101805.84
2022-09-05T13:04:18.116Z,101805.38
2022-09-05T13:10:44.596Z,101794.00
2022-09-05T13:15:36.203Z,101794.31
2022-09-05T13:21:07.691Z,101785.44
2022-09-05T13:26:38.941Z,101790.25
2022-09-05T13:38:00.573Z,101781.31
2022-09-05T13:43:45.805Z,101778.94
2022-09-05T13:49:32.059Z,101766.94
2022-09-05T13:55:04.719Z,101755.19
2022-09-05T14:01:06.382Z,101756.31
2022-09-05T14:06:48.779Z,101757.16
2022-09-05T14:12:19.562Z,101736.03
2022-09-05T14:18:20.147Z,101736.75
2022-09-05T14:23:53.349Z,101728.47
2022-09-05T14:29:19.872Z,101743.59
2022-09-05T14:37:48.806Z,101736.50
2022-09-05T14:41:15.202Z,101741.72
2022-09-05T14:47:00.013Z,101735.22
2022-09-05T14:52:28.513Z,101728.38
2022-09-05T15:02:28.462Z,101724.41
2022-09-05T15:12:14.752Z,101705.41
2022-09-05T15:15:16.100Z,101697.31
2022-09-05T15:20:41.785Z,101715.00
2022-09-05T15:26:08.045Z,101718.13
2022-09-05T15:31:31.342Z,101721.56
2022-09-05T15:36:55.581Z,101711.06
2022-09-05T15:42:35.254Z,101717.03
2022-09-05T15:48:26.156Z,101703.13
2022-09-05T15:53:52.400Z,101653.97
2022-09-05T15:59:17.258Z,101707.19
2022-09-05T16:08:19.686Z,101706.69
2022-09-05T16:10:56.088Z,101700.41
2022-09-05T16:23:18.191Z,101677.13
2022-09-05T16:23:23.413Z,101707.13
2022-09-05T16:27:51.503Z,101676.16
2022-09-05T16:33:18.247Z,101683.81
2022-09-05T16:38:48.846Z,101687.72
2022-09-05T16:44:16.208Z,101695.28
2022-09-05T16:49:44.979Z,101671.47
2022-09-05T16:55:17.338Z,101689.38
2022-09-05T17:00:53.972Z,101679.41
2022-09-05T17:06:25.497Z,101653.41
2022-09-05T17:12:00.627Z,101671.00
2022-09-05T17:18:18.610Z,101667.88
2022-09-05T17:29:19.904Z,101657.50
2022-09-05T17:29:28.938Z,101658.81
2022-09-05T17:35:17.764Z,101660.56
2022-09-05T17:41:02.504Z,101636.47
2022-09-05T17:46:28.783Z,101633.22
2022-09-05T17:52:25.956Z,101652.75
2022-09-05T17:57:50.829Z,101637.91
2022-09-05T18:04:15.805Z,101650.53
2022-09-05T18:09:58.798Z,101655.53
2022-09-05T18:16:12.565Z,101654.28
2022-09-05T18:21:48.200Z,101671.38
2022-09-05T18:28:03.933Z,101648.44
2022-09-05T18:33:55.542Z,101645.25
2022-09-05T18:39:41.910Z,101653.38
2022-09-05T18:45:14.521Z,101654.81
2022-09-05T18:50:46.918Z,101642.72
2022-09-05T18:56:20.172Z,101647.22
2022-09-05T19:01:53.008Z,101641.81
2022-09-05T19:07:22.378Z,101636.59
2022-09-05T19:12:53.758Z,101647.38
2022-09-05T19:18:37.075Z,101646.13
2022-09-05T19:24:05.824Z,101652.88
2022-09-05T19:35:29.380Z,101644.63
2022-09-05T19:36:58.282Z,101640.34
2022-09-05T19:47:29.783Z,101668.59
2022-09-05T19:47:47.592Z,101652.63
2022-09-05T19:52:33.059Z,101694.84
2022-09-05T19:58:19.278Z,101785.09
2022-09-05T20:03:44.972Z,101796.38
2022-09-05T20:09:10.578Z,101775.00
2022-09-05T20:14:36.812Z,101800.38
2022-09-05T20:20:09.777Z,101790.44
2022-09-05T20:25:39.672Z,101821.94
2022-09-05T20:31:08.260Z,101826.06
2022-09-05T20:41:53.849Z,101843.13
2022-09-05T20:43:29.306Z,101848.19
2022-09-05T20:54:04.266Z,101872.16
2022-09-05T20:54:21.138Z,101852.88
2022-09-05T20:59:38.448Z,101827.03
2022-09-05T21:05:06.801Z,101795.25
2022-09-05T21:10:56.004Z,101796.84
2022-09-05T21:16:21.714Z,101810.59
2022-09-05T21:21:46.368Z,101812.09
2022-09-05T21:27:17.843Z,101778.25
2022-09-05T21:32:41.950Z,101785.59
2022-09-05T21:38:06.854Z,101758.03
2022-09-05T21:47:39.415Z,101763.75
2022-09-05T21:49:14.857Z,101743.97
2022-09-05T21:59:18.343Z,101742.97
2022-09-05T22:00:25.490Z,101729.63
2022-09-05T22:05:49.483Z,101702.38
2022-09-05T22:11:14.980Z,101695.31
2022-09-05T22:16:44.734Z,101684.75
2022-09-05T22:22:16.200Z,101693.31
2022-09-05T22:27:44.875Z,101692.44
2022-09-05T22:33:08.863Z,101680.97
2022-09-05T22:38:33.278Z,101652.56
2022-09-05T22:43:57.902Z,101655.25
2022-09-05T22:49:21.154Z,101631.75
2022-09-05T22:54:44.612Z,101622.03
2022-09-05T23:00:11.390Z,101591.88
2022-09-05T23:05:35.062Z,101592.88
2022-09-05T23:10:58.465Z,101596.16
2022-09-05T23:16:23.101Z,101591.84
2022-09-05T23:21:46.467Z,101615.34
2022-09-05T23:27:09.740Z,101599.47
2022-09-05T23:32:34.527Z,101620.88
2022-09-05T23:37:57.867Z,101640.31
2022-09-05T23:43:21.099Z,101641.50
2022-09-05T23:48:45.787Z,101629.34
2022-09-05T23:54:08.916Z,101631.28
2022-09-05T23:59:32.090Z,101637.53
